Etusivu
METAR-TAF:

METAR-TAF

Lentoasemat :

Hawkins Field

Jackson, Mississippi, Yhdysvallat

Leveyspiiri: 32-20-05N, Pituuspiiri: 090-13-21W, korkeus merenpinnasta: 104 m

Tämänhetkinen sää

Tämä raportti tehtiin 38 minuuttia sitten, kello 08.53 UTC
Tuuli 7 kn idästä
Lämpötila 9°C
Kosteus 46%
Ilmanpaine 1030 hPa
Näkyvyys: 16.1 km
selkeää

METAR: KHKS 080853Z AUTO 10007KT 10SM CLR 09/M02 A3043 RMK AO2 SLP299 T00941022 58009

Aika: 03:31 (09:31 UTC)

Sääennuste

Tämä raportti tehtiin 4 tuntia ja 11 minuuttia sitten, kello 05.20 UTC
Ennuste voimassa 08. päivästä klo 06 UTC - 09. päivään klo 06 UTC
Tuuli 3 kn eri suunnista
Näkyvyys: 10 km
selkeää
From 08. päivästä klo 1500 UTC
Tuuli 8 kn etelästä/kaakosta
Näkyvyys: 10 km
selkeää

TAF: KHKS 080520Z 0806/0906 VRB03KT P6SM SKC FM081500 16008KT P6SM SKC

Säähavainnot ja -ennusteet yli 4000 lentoasemalta (METAR- ja TAF-raportit).

Käytössä olevat sääasemat on merkitty karttaan keltaisilla ja punaisilla pisteillä.

Aseta hiiri pisteen päälle nähdäksesi sääaseman nimen.

Klikkaa sitten nähdäksesi säähavainnot ja -ennusteet.

Kartan vaihtaminen: klikkaa mustalla rastilla varustettuja vihreitä pisteitä, niin voit zoomata sisään; viivalla varustettua vihreää pistettä, niin voit zoomata ulos tai vihreitä nuolia, niin pääset viereisille kartoille.


METAR-TAF: